Time;durP1;ratioP1;P1;durP2;ratioP2;P2;SDS_P1;SDS_P2;PMS_P1;PMS_P2;Temp;Humidity;BMP_temperature;BMP_pressure;BME280_temperature;BME280_humidity;BME280_pressure;Samples;Min_cycle;Max_cycle;Signal;HPM_P1;HPM_P2
2022/08/06 00:01:32;;;;;;;;;;;;;;;;;;5054827;28;1114;-75
2022/08/06 00:04:00;;;;;;;;;;;;;;;;;;5054561;28;818;-75
2022/08/06 00:06:26;;;;;;;;;;;;;;;;;;5054915;28;1408;-75
2022/08/06 00:08:52;;;;;;;;;;;;;;;;;;5054726;28;2062;-75
2022/08/06 00:11:19;;;;;;;;;;;;;;;;;;5054298;28;1263;-75
2022/08/06 00:13:45;;;;;;;;;;;;;;;;;;5036823;28;1171;-75
2022/08/06 00:16:11;;;;;;;;;;;;;;;;;;5054525;28;1012;-73
2022/08/06 00:18:37;;;;;;;;;;;;;;;;;;5054537;28;1387;-75
2022/08/06 00:21:05;;;;;;;;;;;;;;;;;;5054260;28;952;-75
2022/08/06 00:23:31;;;;;;;;;;;;;;;;;;5054491;28;858;-75
2022/08/06 00:25:57;;;;;;;;;;;;;;;;;;5053901;28;818;-75
2022/08/06 00:28:24;;;;;;;;;;;;;;;;;;5053985;28;1979;-75
2022/08/06 00:30:50;;;;;;;;;;;;;;;;;;5054111;28;1055;-75
2022/08/06 00:33:16;;;;;;;;;;;;;;;;;;5053897;28;865;-74
2022/08/06 00:35:42;;;;;;;;;;;;;;;;;;5054328;28;1150;-75
2022/08/06 00:38:10;;;;;;;;;;;;;;;;;;5035753;28;1423;-75
2022/08/06 00:40:36;;;;;;;;;;;;;;;;;;5054198;28;1108;-75
2022/08/06 00:43:03;;;;;;;;;;;;;;;;;;5053813;28;1059;-75
2022/08/06 00:45:29;;;;;;;;;;;;;;;;;;5054085;28;969;-75
2022/08/06 00:47:56;;;;;;;;;;;;;;;;;;5035899;28;1911;-75
2022/08/06 00:50:22;;;;;;;;;;;;;;;;;;5053949;28;969;-75
2022/08/06 00:52:48;;;;;;;;;;;;;;;;;;5053620;28;1075;-74
2022/08/06 00:55:16;;;;;;;;;;;;;;;;;;5053747;28;958;-74
2022/08/06 00:57:42;;;;;;;;;;;;;;;;;;5053513;28;1114;-75
2022/08/06 01:00:08;;;;;;;;;;;;;;;;;;5053537;28;1343;-75
2022/08/06 01:02:35;;;;;;;;;;;;;;;;;;5034864;28;1559;-74
2022/08/06 01:05:01;;;;;;;;;;;;;;;;;;5053905;28;1072;-74
2022/08/06 01:07:27;;;;;;;;;;;;;;;;;;5053562;28;1910;-75
2022/08/06 01:09:54;;;;;;;;;;;;;;;;;;5053614;28;1376;-74
2022/08/06 01:12:21;;;;;;;;;;;;;;;;;;5053216;28;803;-74
2022/08/06 01:14:47;;;;;;;;;;;;;;;;;;5053510;28;1075;-75
2022/08/06 01:17:15;;;;;;;;;;;;;;;;;;5035305;28;1633;-75
2022/08/06 01:19:46;;;;;;;;;;;;;;;;;;5053560;28;1292;-75
2022/08/06 01:22:14;;;;;;;;;;;;;;;;;;5053058;28;1071;-74
2022/08/06 01:25:01;;;;;;;;;;;;;;;;;;5053491;28;1092;-74
2022/08/06 01:27:36;;;;;;;;;;;;;;;;;;5046539;28;1914;-74
2022/08/06 01:30:03;;;;;;;;;;;;;;;;;;5052975;28;1340;-74
2022/08/06 01:32:30;;;;;;;;;;;;;;;;;;5053127;28;1129;-74
2022/08/06 01:34:56;;;;;;;;;;;;;;;;;;5053047;28;1120;-74
2022/08/06 01:37:23;;;;;;;;;;;;;;;;;;5052914;28;1409;-75
2022/08/06 01:39:51;;;;;;;;;;;;;;;;;;5053383;28;1381;-74
2022/08/06 01:42:17;;;;;;;;;;;;;;;;;;5053199;28;850;-74
2022/08/06 01:44:45;;;;;;;;;;;;;;;;;;5052978;28;1123;-74
2022/08/06 01:47:12;;;;;;;;;;;;;;;;;;5052717;28;1969;-76
2022/08/06 01:49:38;;;;;;;;;;;;;;;;;;5052629;28;1301;-74
2022/08/06 01:52:05;;;;;;;;;;;;;;;;;;5034510;28;1111;-75
2022/08/06 01:54:31;;;;;;;;;;;;;;;;;;5052845;28;1068;-75
2022/08/06 01:56:58;;;;;;;;;;;;;;;;;;5052779;28;791;-74
2022/08/06 01:59:26;;;;;;;;;;;;;;;;;;5052557;28;1345;-75
2022/08/06 02:01:54;;;;;;;;;;;;;;;;;;5052451;28;1247;-75
2022/08/06 02:04:22;;;;;;;;;;;;;;;;;;5052539;28;802;-73
2022/08/06 02:06:50;;;;;;;;;;;;;;;;;;5052355;28;1131;-74
2022/08/06 02:09:16;;;;;;;;;;;;;;;;;;5052198;28;1914;-75
2022/08/06 02:11:43;;;;;;;;;;;;;;;;;;5034407;28;1305;-75
2022/08/06 02:14:09;;;;;;;;;;;;;;;;;;5051596;28;1068;-74
2022/08/06 02:16:37;;;;;;;;;;;;;;;;;;5034542;28;1600;-74
2022/08/06 02:19:05;;;;;;;;;;;;;;;;;;5052185;28;1313;-74
2022/08/06 02:21:31;;;;;;;;;;;;;;;;;;5052100;28;853;-74
2022/08/06 02:23:57;;;;;;;;;;;;;;;;;;5051895;28;1075;-74
2022/08/06 02:26:24;;;;;;;;;;;;;;;;;;5051999;28;957;-74
2022/08/06 02:28:50;;;;;;;;;;;;;;;;;;5051940;28;1910;-75
2022/08/06 02:31:16;;;;;;;;;;;;;;;;;;5051745;28;1079;-76
2022/08/06 02:33:42;;;;;;;;;;;;;;;;;;5052042;28;786;-75
2022/08/06 02:36:13;;;;;;;;;;;;;;;;;;5052285;28;1122;-75
2022/08/06 02:38:40;;;;;;;;;;;;;;;;;;5052037;28;1325;-74
2022/08/06 02:41:12;;;;;;;;;;;;;;;;;;5051914;28;1083;-74
2022/08/06 02:43:39;;;;;;;;;;;;;;;;;;5051840;28;1095;-74
2022/08/06 02:46:08;;;;;;;;;;;;;;;;;;5051782;28;802;-75
2022/08/06 02:48:36;;;;;;;;;;;;;;;;;;5052075;28;1914;-75
2022/08/06 02:51:03;;;;;;;;;;;;;;;;;;5051807;28;834;-74
2022/08/06 02:53:31;;;;;;;;;;;;;;;;;;5051812;28;1060;-74
2022/08/06 02:56:00;;;;;;;;;;;;;;;;;;5051364;28;1744;-74
2022/08/06 02:58:29;;;;;;;;;;;;;;;;;;5051777;28;1340;-74
2022/08/06 03:00:56;;;;;;;;;;;;;;;;;;5051508;28;810;-74
2022/08/06 03:03:23;;;;;;;;;;;;;;;;;;5051060;28;1080;-74
2022/08/06 03:05:49;;;;;;;;;;;;;;;;;;5051449;28;1079;-74
2022/08/06 03:08:17;;;;;;;;;;;;;;;;;;5051384;28;1978;-74
2022/08/06 03:10:44;;;;;;;;;;;;;;;;;;5033753;28;1339;-74
2022/08/06 03:13:10;;;;;;;;;;;;;;;;;;5051132;28;1072;-74
2022/08/06 03:15:37;;;;;;;;;;;;;;;;;;5051385;28;1067;-74
2022/08/06 03:18:03;;;;;;;;;;;;;;;;;;5051161;28;1432;-74
2022/08/06 03:20:29;;;;;;;;;;;;;;;;;;5051406;28;898;-74
2022/08/06 03:22:57;;;;;;;;;;;;;;;;;;5051005;28;1084;-73
2022/08/06 03:25:23;;;;;;;;;;;;;;;;;;5051154;28;1107;-74
2022/08/06 03:27:50;;;;;;;;;;;;;;;;;;5051299;28;1910;-72
2022/08/06 03:30:17;;;;;;;;;;;;;;;;;;5051106;28;1078;-75
2022/08/06 03:32:43;;;;;;;;;;;;;;;;;;5050999;28;944;-74
2022/08/06 03:35:10;;;;;;;;;;;;;;;;;;5051077;28;1064;-73
2022/08/06 03:37:36;;;;;;;;;;;;;;;;;;5050878;28;925;-74
2022/08/06 03:40:02;;;;;;;;;;;;;;;;;;5050957;28;1463;-74
2022/08/06 03:42:29;;;;;;;;;;;;;;;;;;5050675;28;786;-74
2022/08/06 03:44:56;;;;;;;;;;;;;;;;;;5051037;28;985;-75
2022/08/06 03:47:24;;;;;;;;;;;;;;;;;;5050941;28;1130;-74
2022/08/06 03:49:51;;;;;;;;;;;;;;;;;;5033094;28;1922;-74
2022/08/06 03:52:24;;;;;;;;;;;;;;;;;;5032850;28;1258;-74
2022/08/06 03:54:51;;;;;;;;;;;;;;;;;;5050991;28;1134;-74
2022/08/06 03:57:18;;;;;;;;;;;;;;;;;;5032726;28;1300;-74
2022/08/06 03:59:45;;;;;;;;;;;;;;;;;;5050862;28;1308;-73
2022/08/06 04:02:12;;;;;;;;;;;;;;;;;;5050676;28;941;-74
2022/08/06 04:04:38;;;;;;;;;;;;;;;;;;5051258;28;981;-74
2022/08/06 04:07:05;;;;;;;;;;;;;;;;;;5049852;28;1421;-74
2022/08/06 04:09:31;;;;;;;;;;;;;;;;;;5066214;28;1991;-76
2022/08/06 04:11:57;;;;;;;;;;;;;;;;;;5066011;28;1478;-73
2022/08/06 04:14:24;;;;;;;;;;;;;;;;;;5031783;28;1598;-74
2022/08/06 04:16:50;;;;;;;;;;;;;;;;;;5057375;28;1578;-77
2022/08/06 04:19:18;;;;;;;;;;;;;;;;;;5040850;28;1481;-76
2022/08/06 04:21:44;;;;;;;;;;;;;;;;;;5065767;28;1229;-76
2022/08/06 04:24:11;;;;;;;;;;;;;;;;;;5061220;28;1391;-75
2022/08/06 04:26:38;;;;;;;;;;;;;;;;;;5043874;28;1338;-75
2022/08/06 04:29:04;;;;;;;;;;;;;;;;;;5051970;28;1914;-74
2022/08/06 04:31:30;;;;;;;;;;;;;;;;;;5062350;28;1755;-75
2022/08/06 04:33:56;;;;;;;;;;;;;;;;;;5070583;28;1096;-75
2022/08/06 04:36:24;;;;;;;;;;;;;;;;;;5038357;28;1788;-74
2022/08/06 04:38:50;;;;;;;;;;;;;;;;;;5048852;28;1607;-74
2022/08/06 04:41:16;;;;;;;;;;;;;;;;;;5067133;28;1498;-74
2022/08/06 04:43:42;;;;;;;;;;;;;;;;;;5074123;28;1177;-75
2022/08/06 04:46:08;;;;;;;;;;;;;;;;;;5056178;28;1202;-75
2022/08/06 04:48:35;;;;;;;;;;;;;;;;;;5057135;28;1962;-76
2022/08/06 04:51:02;;;;;;;;;;;;;;;;;;5071175;28;1071;-74
2022/08/06 04:53:30;;;;;;;;;;;;;;;;;;5056239;28;1538;-74
2022/08/06 04:55:56;;;;;;;;;;;;;;;;;;5053337;28;2066;-74
2022/08/06 04:58:22;;;;;;;;;;;;;;;;;;5053783;28;1390;-73
2022/08/06 05:00:48;;;;;;;;;;;;;;;;;;5053326;28;1476;-74
2022/08/06 05:03:15;;;;;;;;;;;;;;;;;;5035875;28;1105;-74
2022/08/06 05:05:43;;;;;;;;;;;;;;;;;;5053935;28;1091;-74
2022/08/06 05:08:09;;;;;;;;;;;;;;;;;;5053288;28;1887;-73
2022/08/06 05:10:41;;;;;;;;;;;;;;;;;;5053769;28;782;-74
2022/08/06 05:13:07;;;;;;;;;;;;;;;;;;5053304;28;941;-73
2022/08/06 05:15:34;;;;;;;;;;;;;;;;;;5053690;28;1084;-74
2022/08/06 05:18:02;;;;;;;;;;;;;;;;;;5053350;28;1313;-75
2022/08/06 05:20:29;;;;;;;;;;;;;;;;;;5053571;28;868;-74
2022/08/06 05:23:00;;;;;;;;;;;;;;;;;;5053126;28;1123;-74
2022/08/06 05:25:26;;;;;;;;;;;;;;;;;;5053094;28;941;-74
2022/08/06 05:27:54;;;;;;;;;;;;;;;;;;5053140;28;1403;-74
2022/08/06 05:30:21;;;;;;;;;;;;;;;;;;5035150;28;1918;-74
2022/08/06 05:32:47;;;;;;;;;;;;;;;;;;5053105;28;965;-74
2022/08/06 05:35:14;;;;;;;;;;;;;;;;;;5053052;28;1112;-74
2022/08/06 05:37:40;;;;;;;;;;;;;;;;;;5053264;28;882;-74
2022/08/06 05:40:07;;;;;;;;;;;;;;;;;;5052534;28;1352;-74
2022/08/06 05:42:33;;;;;;;;;;;;;;;;;;5052765;28;1123;-74
2022/08/06 05:45:01;;;;;;;;;;;;;;;;;;5052918;28;1142;-74
2022/08/06 05:47:29;;;;;;;;;;;;;;;;;;5052496;28;1071;-75
2022/08/06 05:49:56;;;;;;;;;;;;;;;;;;5052395;28;1918;-74
2022/08/06 05:52:23;;;;;;;;;;;;;;;;;;5034487;28;1258;-75
2022/08/06 05:54:51;;;;;;;;;;;;;;;;;;5052887;28;790;-75
2022/08/06 05:57:18;;;;;;;;;;;;;;;;;;5052443;28;1207;-75
2022/08/06 05:59:47;;;;;;;;;;;;;;;;;;5052739;28;1316;-75
2022/08/06 06:02:15;;;;;;;;;;;;;;;;;;5052258;28;822;-74
2022/08/06 06:04:41;;;;;;;;;;;;;;;;;;5051358;28;1600;-75
2022/08/06 06:07:08;;;;;;;;;;;;;;;;;;5041997;28;1285;-75
2022/08/06 06:09:34;;;;;;;;;;;;;;;;;;5072569;28;1965;-73
2022/08/06 06:12:01;;;;;;;;;;;;;;;;;;5029729;28;1469;-74
2022/08/06 06:14:28;;;;;;;;;;;;;;;;;;5056495;28;1549;-75
2022/08/06 06:16:56;;;;;;;;;;;;;;;;;;5057681;28;1325;-75
2022/08/06 06:19:27;;;;;;;;;;;;;;;;;;5049130;28;1427;-75
2022/08/06 06:21:55;;;;;;;;;;;;;;;;;;5040915;28;1385;-76
2022/08/06 06:24:23;;;;;;;;;;;;;;;;;;5056382;28;1307;-77
2022/08/06 06:26:51;;;;;;;;;;;;;;;;;;5056120;28;1331;-76
2022/08/06 06:29:20;;;;;;;;;;;;;;;;;;5058943;28;1911;-76
2022/08/06 06:31:49;;;;;;;;;;;;;;;;;;5060295;28;1367;-76
2022/08/06 06:34:18;;;;;;;;;;;;;;;;;;5049503;28;1443;-75
2022/08/06 06:36:47;;;;;;;;;;;;;;;;;;5050036;28;1021;-76
2022/08/06 06:39:16;;;;;;;;;;;;;;;;;;5049970;28;1281;-77
2022/08/06 06:41:44;;;;;;;;;;;;;;;;;;5050562;28;1136;-74
2022/08/06 06:44:12;;;;;;;;;;;;;;;;;;5051679;28;945;-76
2022/08/06 06:46:40;;;;;;;;;;;;;;;;;;5052032;28;1414;-75
2022/08/06 06:49:08;;;;;;;;;;;;;;;;;;5051572;28;1983;-75
2022/08/06 06:51:41;;;;;;;;;;;;;;;;;;5051170;28;732;-76
2022/08/06 06:54:10;;;;;;;;;;;;;;;;;;5041775;28;1514;-77
2022/08/06 06:56:37;;;;;;;;;;;;;;;;;;5071594;28;1247;-75
2022/08/06 06:59:04;;;;;;;;;;;;;;;;;;5056883;28;1494;-75
2022/08/06 07:01:32;;;;;;;;;;;;;;;;;;5043729;28;1395;-77
2022/08/06 07:03:59;;;;;;;;;;;;;;;;;;5071785;28;1233;-76
2022/08/06 07:06:26;;;;;;;;;;;;;;;;;;5071452;28;1071;-76
2022/08/06 07:08:52;;;;;;;;;;;;;;;;;;5053129;28;1925;-77
2022/08/06 07:11:20;;;;;;;;;;;;;;;;;;5071074;28;1015;-76
2022/08/06 07:13:47;;;;;;;;;;;;;;;;;;5071456;28;1055;-75
2022/08/06 07:16:14;;;;;;;;;;;;;;;;;;5053364;28;1409;-75
2022/08/06 07:18:40;;;;;;;;;;;;;;;;;;5071409;28;1392;-74
2022/08/06 07:21:06;;;;;;;;;;;;;;;;;;5053328;28;1338;-76
2022/08/06 07:23:32;;;;;;;;;;;;;;;;;;5071135;28;957;-75
2022/08/06 07:25:59;;;;;;;;;;;;;;;;;;5053266;28;1212;-75
2022/08/06 07:28:27;;;;;;;;;;;;;;;;;;5053231;28;1377;-76
2022/08/06 07:30:53;;;;;;;;;;;;;;;;;;5053201;28;1914;-75
2022/08/06 07:33:19;;;;;;;;;;;;;;;;;;5062101;28;1230;-75
2022/08/06 07:35:46;;;;;;;;;;;;;;;;;;5066641;28;1490;-75
2022/08/06 07:38:13;;;;;;;;;;;;;;;;;;5050953;28;1420;-76
2022/08/06 07:40:39;;;;;;;;;;;;;;;;;;5066812;28;1421;-76
2022/08/06 07:43:06;;;;;;;;;;;;;;;;;;5050648;28;1115;-77
2022/08/06 07:45:34;;;;;;;;;;;;;;;;;;5051002;28;1052;-76
2022/08/06 07:48:01;;;;;;;;;;;;;;;;;;5050779;28;1310;-76
2022/08/06 07:50:27;;;;;;;;;;;;;;;;;;5033402;28;1918;-76
2022/08/06 07:52:54;;;;;;;;;;;;;;;;;;5049717;28;1172;-76
2022/08/06 07:55:21;;;;;;;;;;;;;;;;;;5040248;28;1235;-76
2022/08/06 07:57:48;;;;;;;;;;;;;;;;;;5048021;28;1330;-76
2022/08/06 08:00:14;;;;;;;;;;;;;;;;;;5050851;28;1328;-75
2022/08/06 08:06:17;;;;;;;;;;;;;;;;;;5050340;28;904;-75
2022/08/06 08:08:14;;;;;;;;;;;;;;;;;;5050535;28;1406;-76
2022/08/06 08:10:40;;;;;;;;;;;;;;;;;;5051086;28;2030;-76
2022/08/06 08:13:06;;;;;;;;;;;;;;;;;;5069417;28;1422;-76
2022/08/06 08:15:32;;;;;;;;;;;;;;;;;;5054810;28;1071;-76
2022/08/06 08:18:00;;;;;;;;;;;;;;;;;;5054692;28;1314;-76
2022/08/06 08:20:26;;;;;;;;;;;;;;;;;;5054449;28;1068;-76
2022/08/06 08:22:52;;;;;;;;;;;;;;;;;;5054156;28;1072;-78
2022/08/06 08:25:19;;;;;;;;;;;;;;;;;;5052962;28;1522;-76
2022/08/06 08:27:45;;;;;;;;;;;;;;;;;;5061893;28;1174;-76
2022/08/06 08:30:11;;;;;;;;;;;;;;;;;;5073988;28;1973;-73
2022/08/06 08:32:38;;;;;;;;;;;;;;;;;;5074203;28;799;-74
2022/08/06 08:35:06;;;;;;;;;;;;;;;;;;5073951;28;1059;-74
2022/08/06 08:37:32;;;;;;;;;;;;;;;;;;5070649;28;1439;-75
2022/08/06 08:39:58;;;;;;;;;;;;;;;;;;5064281;28;1404;-74
2022/08/06 08:42:27;;;;;;;;;;;;;;;;;;5044024;28;1549;-74
2022/08/06 08:44:53;;;;;;;;;;;;;;;;;;5062984;28;1818;-75
2022/08/06 08:47:20;;;;;;;;;;;;;;;;;;5057432;28;1392;-75
2022/08/06 08:49:47;;;;;;;;;;;;;;;;;;5072868;28;1914;-72
2022/08/06 08:52:15;;;;;;;;;;;;;;;;;;5053005;28;1266;-74
2022/08/06 08:54:42;;;;;;;;;;;;;;;;;;5053496;28;1414;-74
2022/08/06 08:57:08;;;;;;;;;;;;;;;;;;5035563;28;1276;-74
2022/08/06 08:59:35;;;;;;;;;;;;;;;;;;5053331;28;1286;-74
2022/08/06 09:02:01;;;;;;;;;;;;;;;;;;5053149;28;1131;-75
2022/08/06 09:04:28;;;;;;;;;;;;;;;;;;5053526;28;964;-74
2022/08/06 09:06:54;;;;;;;;;;;;;;;;;;5053758;28;1076;-74
2022/08/06 09:09:21;;;;;;;;;;;;;;;;;;5053820;28;1302;-74
2022/08/06 09:11:47;;;;;;;;;;;;;;;;;;5053071;28;1987;-75
2022/08/06 09:14:14;;;;;;;;;;;;;;;;;;5053576;28;1063;-74
2022/08/06 09:16:40;;;;;;;;;;;;;;;;;;5053698;28;778;-74
2022/08/06 09:19:06;;;;;;;;;;;;;;;;;;5053351;28;1420;-74
2022/08/06 09:21:32;;;;;;;;;;;;;;;;;;5053143;28;945;-73
2022/08/06 09:23:59;;;;;;;;;;;;;;;;;;5053262;28;1126;-75
2022/08/06 09:26:26;;;;;;;;;;;;;;;;;;5053396;28;1150;-76
2022/08/06 09:28:52;;;;;;;;;;;;;;;;;;5052955;28;1337;-73
2022/08/06 09:31:19;;;;;;;;;;;;;;;;;;5052916;28;1910;-75
2022/08/06 09:33:53;;;;;;;;;;;;;;;;;;5053398;28;779;-74
2022/08/06 09:36:19;;;;;;;;;;;;;;;;;;5053278;28;1099;-73
2022/08/06 09:38:47;;;;;;;;;;;;;;;;;;5053248;28;1380;-74
2022/08/06 09:41:13;;;;;;;;;;;;;;;;;;5053002;28;1068;-75
2022/08/06 09:43:40;;;;;;;;;;;;;;;;;;5052969;28;1007;-74
2022/08/06 09:46:07;;;;;;;;;;;;;;;;;;5053118;28;916;-74
2022/08/06 09:48:33;;;;;;;;;;;;;;;;;;5052811;28;1308;-75
2022/08/06 09:50:59;;;;;;;;;;;;;;;;;;5034966;28;1914;-75
2022/08/06 09:53:26;;;;;;;;;;;;;;;;;;5052685;28;1067;-73
2022/08/06 09:55:52;;;;;;;;;;;;;;;;;;5052902;28;800;-74
2022/08/06 09:58:33;;;;;;;;;;;;;;;;;;5052776;28;1399;-75
2022/08/06 10:01:12;;;;;;;;;;;;;;;;;;5052457;28;1060;-74
2022/08/06 10:03:39;;;;;;;;;;;;;;;;;;5052410;28;893;-75
2022/08/06 10:06:06;;;;;;;;;;;;;;;;;;5034647;28;909;-74
2022/08/06 10:08:32;;;;;;;;;;;;;;;;;;5052476;28;1386;-76
2022/08/06 10:11:02;;;;;;;;;;;;;;;;;;5052391;28;1919;-76
2022/08/06 10:13:29;;;;;;;;;;;;;;;;;;5052313;28;1076;-78
2022/08/06 10:15:57;;;;;;;;;;;;;;;;;;5052375;28;1078;-75
2022/08/06 10:18:31;;;;;;;;;;;;;;;;;;5052224;28;1325;-75
2022/08/06 10:21:01;;;;;;;;;;;;;;;;;;5051984;28;899;-78
2022/08/06 10:23:27;;;;;;;;;;;;;;;;;;5052103;28;1104;-74
2022/08/06 10:25:53;;;;;;;;;;;;;;;;;;5052198;28;1163;-75
2022/08/06 10:28:19;;;;;;;;;;;;;;;;;;5051913;28;1353;-76
2022/08/06 10:30:45;;;;;;;;;;;;;;;;;;5052150;28;1968;-75
2022/08/06 10:33:12;;;;;;;;;;;;;;;;;;5066661;22;4071;-70
2022/08/06 10:35:39;;;;;;;;;;;;;;;;;;5071266;28;1073;-70
2022/08/06 10:38:05;;;;;;;;;;;;;;;;;;5071593;28;1123;-71
2022/08/06 10:40:32;;;;;;;;;;;;;;;;;;5072012;28;782;-69
2022/08/06 10:42:58;;;;;;;;;;;;;;;;;;5070854;28;1498;-71
2022/08/06 10:45:25;;;;;;;;;;;;;;;;;;5071749;28;1123;-71
2022/08/06 10:47:51;;;;;;;;;;;;;;;;;;5071907;28;1075;-71
2022/08/06 10:50:17;;;;;;;;;;;;;;;;;;5053616;28;1974;-71
2022/08/06 10:52:46;;;;;;;;;;;;;;;;;;5071293;28;1392;-70
2022/08/06 10:55:12;;;;;;;;;;;;;;;;;;5071294;28;901;-71
2022/08/06 10:57:39;;;;;;;;;;;;;;;;;;5071754;28;1080;-71
2022/08/06 11:00:06;;;;;;;;;;;;;;;;;;5071589;28;1115;-71
2022/08/06 11:02:33;;;;;;;;;;;;;;;;;;5071170;28;848;-72
2022/08/06 11:05:00;;;;;;;;;;;;;;;;;;5071401;28;1311;-71
2022/08/06 11:07:33;;;;;;;;;;;;;;;;;;5071481;28;1067;-71
2022/08/06 11:10:03;;;;;;;;;;;;;;;;;;5071394;28;945;-70
2022/08/06 11:12:39;;;;;;;;;;;;;;;;;;5070940;28;1067;-71
2022/08/06 11:15:06;;;;;;;;;;;;;;;;;;5071314;28;1400;-71
2022/08/06 11:17:50;;;;;;;;;;;;;;;;;;5053404;28;1156;-71
2022/08/06 11:20:36;;;;;;;;;;;;;;;;;;5071278;28;1467;-71
2022/08/06 11:23:03;;;;;;;;;;;;;;;;;;5070830;28;1387;-71
2022/08/06 11:25:38;;;;;;;;;;;;;;;;;;5071297;28;964;-71
2022/08/06 11:28:05;;;;;;;;;;;;;;;;;;5071028;28;941;-71
2022/08/06 11:30:36;;;;;;;;;;;;;;;;;;5071165;28;1902;-71
2022/08/06 11:33:03;;;;;;;;;;;;;;;;;;5070676;28;1409;-71
2022/08/06 11:35:52;;;;;;;;;;;;;;;;;;5071101;28;1075;-71
2022/08/06 11:38:34;;;;;;;;;;;;;;;;;;5050566;28;1428;-72
2022/08/06 11:41:02;;;;;;;;;;;;;;;;;;5070375;28;1119;-71
2022/08/06 11:43:49;;;;;;;;;;;;;;;;;;5070644;28;1317;-71
2022/08/06 11:46:22;;;;;;;;;;;;;;;;;;5064714;28;1085;-71
2022/08/06 11:49:07;;;;;;;;;;;;;;;;;;5075261;28;901;-71
2022/08/06 11:51:40;;;;;;;;;;;;;;;;;;5074798;28;1977;-71
2022/08/06 11:54:09;;;;;;;;;;;;;;;;;;5074924;28;1404;-71
2022/08/06 11:56:37;;;;;;;;;;;;;;;;;;5075139;28;1107;-71
2022/08/06 11:59:13;;;;;;;;;;;;;;;;;;5075028;28;1075;-71
2022/08/06 12:01:45;;;;;;;;;;;;;;;;;;5074806;28;1067;-71
2022/08/06 12:04:17;;;;;;;;;;;;;;;;;;5074653;28;1401;-70
2022/08/06 12:06:43;;;;;;;;;;;;;;;;;;5056560;28;1277;-71
2022/08/06 12:09:10;;;;;;;;;;;;;;;;;;5074806;28;860;-70
2022/08/06 12:11:39;;;;;;;;;;;;;;;;;;5074359;28;1910;-70
2022/08/06 12:14:06;;;;;;;;;;;;;;;;;;5074483;28;1324;-71
2022/08/06 12:16:37;;;;;;;;;;;;;;;;;;5074548;28;1059;-71
2022/08/06 12:19:04;;;;;;;;;;;;;;;;;;5074603;28;1119;-71
2022/08/06 12:21:31;;;;;;;;;;;;;;;;;;5073934;28;1063;-70
2022/08/06 12:23:57;;;;;;;;;;;;;;;;;;5074466;28;1403;-70
2022/08/06 12:26:23;;;;;;;;;;;;;;;;;;5074411;28;866;-70
2022/08/06 12:28:51;;;;;;;;;;;;;;;;;;5074305;28;1063;-70
2022/08/06 12:31:28;;;;;;;;;;;;;;;;;;5073836;28;1973;-70
2022/08/06 12:33:55;;;;;;;;;;;;;;;;;;5056380;28;1318;-70
2022/08/06 12:36:21;;;;;;;;;;;;;;;;;;5056249;28;1108;-70
2022/08/06 12:38:53;;;;;;;;;;;;;;;;;;5073654;28;1523;-70
2022/08/06 12:41:20;;;;;;;;;;;;;;;;;;5053710;28;937;-70
2022/08/06 12:43:46;;;;;;;;;;;;;;;;;;5036181;28;1401;-71
2022/08/06 12:46:15;;;;;;;;;;;;;;;;;;5053934;28;744;-70
2022/08/06 12:48:46;;;;;;;;;;;;;;;;;;5053039;28;1323;-70
2022/08/06 12:51:13;;;;;;;;;;;;;;;;;;5053901;28;1910;-70
2022/08/06 12:53:40;;;;;;;;;;;;;;;;;;5053722;28;1417;-70
2022/08/06 12:56:06;;;;;;;;;;;;;;;;;;5053862;28;1126;-70
2022/08/06 12:58:37;;;;;;;;;;;;;;;;;;5053299;28;1029;-70
2022/08/06 13:01:03;;;;;;;;;;;;;;;;;;5053872;28;925;-70
2022/08/06 13:03:31;;;;;;;;;;;;;;;;;;5053494;28;1384;-70
2022/08/06 13:05:59;;;;;;;;;;;;;;;;;;5053637;28;1047;-70
2022/08/06 13:08:25;;;;;;;;;;;;;;;;;;5053602;28;1138;-70
2022/08/06 13:10:51;;;;;;;;;;;;;;;;;;5053496;28;1977;-69
2022/08/06 13:13:18;;;;;;;;;;;;;;;;;;5053100;28;1302;-70
2022/08/06 13:15:47;;;;;;;;;;;;;;;;;;5053142;28;902;-70
2022/08/06 13:18:14;;;;;;;;;;;;;;;;;;5051973;28;1931;-70
2022/08/06 13:20:43;;;;;;;;;;;;;;;;;;5053604;28;811;-70
2022/08/06 13:23:09;;;;;;;;;;;;;;;;;;5053085;28;1396;-71
2022/08/06 13:25:42;;;;;;;;;;;;;;;;;;5053784;28;949;-71
2022/08/06 13:28:09;;;;;;;;;;;;;;;;;;5053315;28;1122;-71
2022/08/06 13:30:35;;;;;;;;;;;;;;;;;;5053205;28;1071;-70
2022/08/06 13:33:11;;;;;;;;;;;;;;;;;;5034559;28;1985;-71
2022/08/06 13:35:37;;;;;;;;;;;;;;;;;;5053322;28;952;-71
2022/08/06 13:38:05;;;;;;;;;;;;;;;;;;5053367;28;1103;-71
2022/08/06 13:40:43;;;;;;;;;;;;;;;;;;5035348;28;1471;-71
2022/08/06 13:43:09;;;;;;;;;;;;;;;;;;5052627;28;1324;-71
2022/08/06 13:45:35;;;;;;;;;;;;;;;;;;5052852;28;976;-71
2022/08/06 13:48:02;;;;;;;;;;;;;;;;;;5035288;28;1243;-71
2022/08/06 13:50:28;;;;;;;;;;;;;;;;;;5052605;28;1012;-71
2022/08/06 13:52:54;;;;;;;;;;;;;;;;;;5052233;28;1918;-72
2022/08/06 13:55:25;;;;;;;;;;;;;;;;;;5052858;28;1119;-71
2022/08/06 13:57:52;;;;;;;;;;;;;;;;;;5052886;28;1103;-70
2022/08/06 14:00:18;;;;;;;;;;;;;;;;;;5051227;28;1132;-71
2022/08/06 14:02:44;;;;;;;;;;;;;;;;;;5052467;28;1209;-71
2022/08/06 14:05:11;;;;;;;;;;;;;;;;;;5052905;28;972;-71
2022/08/06 14:07:37;;;;;;;;;;;;;;;;;;5052589;28;1132;-71
2022/08/06 14:10:03;;;;;;;;;;;;;;;;;;5051482;28;806;-71
2022/08/06 14:12:31;;;;;;;;;;;;;;;;;;5052089;28;1918;-72
2022/08/06 14:14:57;;;;;;;;;;;;;;;;;;5052409;28;1380;-72
2022/08/06 14:17:23;;;;;;;;;;;;;;;;;;5052284;28;1071;-72
2022/08/06 14:19:50;;;;;;;;;;;;;;;;;;5052459;28;933;-72
2022/08/06 14:22:16;;;;;;;;;;;;;;;;;;5051870;28;977;-71
2022/08/06 14:24:42;;;;;;;;;;;;;;;;;;5052242;28;1290;-72
2022/08/06 14:27:08;;;;;;;;;;;;;;;;;;5051784;28;937;-73
2022/08/06 14:29:36;;;;;;;;;;;;;;;;;;5052016;28;677;-71
2022/08/06 14:32:02;;;;;;;;;;;;;;;;;;5042217;28;1921;-72
2022/08/06 14:34:29;;;;;;;;;;;;;;;;;;5071763;28;1337;-72
2022/08/06 14:36:55;;;;;;;;;;;;;;;;;;5071993;28;796;-71
2022/08/06 14:39:22;;;;;;;;;;;;;;;;;;5053792;28;1053;-71
2022/08/06 14:47:17;;;;;;;;;;;;;;;;;;5071496;28;991;-71
2022/08/06 14:49:44;;;;;;;;;;;;;;;;;;5071560;28;1131;-72
2022/08/06 14:52:10;;;;;;;;;;;;;;;;;;5071159;28;1918;-72
2022/08/06 14:54:37;;;;;;;;;;;;;;;;;;5071614;28;1284;-72
2022/08/06 14:57:04;;;;;;;;;;;;;;;;;;5071665;28;1023;-71
2022/08/06 14:59:30;;;;;;;;;;;;;;;;;;5053524;28;1100;-71
2022/08/06 15:01:56;;;;;;;;;;;;;;;;;;5071536;28;1143;-71
2022/08/06 15:04:24;;;;;;;;;;;;;;;;;;5071205;28;1409;-71
2022/08/06 15:06:50;;;;;;;;;;;;;;;;;;5071542;28;1055;-72
2022/08/06 15:09:16;;;;;;;;;;;;;;;;;;5053430;28;909;-71
2022/08/06 15:11:42;;;;;;;;;;;;;;;;;;5071132;28;1910;-71
2022/08/06 15:14:08;;;;;;;;;;;;;;;;;;5071274;28;1300;-71
2022/08/06 15:16:35;;;;;;;;;;;;;;;;;;5071398;28;1071;-71
2022/08/06 15:19:01;;;;;;;;;;;;;;;;;;5071475;28;929;-71
2022/08/06 15:21:29;;;;;;;;;;;;;;;;;;5070883;28;793;-71
2022/08/06 15:23:55;;;;;;;;;;;;;;;;;;5052971;28;2194;-70
2022/08/06 15:26:22;;;;;;;;;;;;;;;;;;5071042;28;845;-71
2022/08/06 15:28:48;;;;;;;;;;;;;;;;;;5071377;28;715;-71
2022/08/06 15:31:15;;;;;;;;;;;;;;;;;;5070883;28;1063;-72
2022/08/06 15:33:41;;;;;;;;;;;;;;;;;;5071013;28;1971;-72
2022/08/06 15:36:07;;;;;;;;;;;;;;;;;;5071268;28;1055;-72
2022/08/06 15:38:36;;;;;;;;;;;;;;;;;;5071530;28;786;-73
2022/08/06 15:41:02;;;;;;;;;;;;;;;;;;5070923;28;964;-72
2022/08/06 15:43:28;;;;;;;;;;;;;;;;;;5070966;28;1309;-72
2022/08/06 15:45:55;;;;;;;;;;;;;;;;;;5071275;28;876;-71
2022/08/06 15:48:24;;;;;;;;;;;;;;;;;;5071125;28;972;-72
2022/08/06 15:50:50;;;;;;;;;;;;;;;;;;5071029;28;1600;-72
2022/08/06 15:53:16;;;;;;;;;;;;;;;;;;5070417;28;1973;-71
2022/08/06 15:55:44;;;;;;;;;;;;;;;;;;5053260;28;1313;-72
2022/08/06 15:58:10;;;;;;;;;;;;;;;;;;5070951;28;1135;-73
2022/08/06 16:00:37;;;;;;;;;;;;;;;;;;5070728;28;1095;-72
2022/08/06 16:03:03;;;;;;;;;;;;;;;;;;5070636;28;1330;-70
2022/08/06 16:05:30;;;;;;;;;;;;;;;;;;5053140;28;1474;-72
2022/08/06 16:07:56;;;;;;;;;;;;;;;;;;5071115;28;706;-72
2022/08/06 16:10:22;;;;;;;;;;;;;;;;;;5070721;28;1122;-71
2022/08/06 16:12:50;;;;;;;;;;;;;;;;;;5070413;28;1918;-72
2022/08/06 16:15:16;;;;;;;;;;;;;;;;;;5070983;28;1136;-72
2022/08/06 16:17:42;;;;;;;;;;;;;;;;;;5070900;28;1056;-72
2022/08/06 16:20:08;;;;;;;;;;;;;;;;;;5070627;28;937;-71
2022/08/06 16:22:35;;;;;;;;;;;;;;;;;;5070327;28;1059;-72
2022/08/06 16:25:01;;;;;;;;;;;;;;;;;;5070680;28;1325;-71
2022/08/06 16:27:27;;;;;;;;;;;;;;;;;;5070619;28;822;-70
2022/08/06 16:29:55;;;;;;;;;;;;;;;;;;5070688;28;1083;-72
2022/08/06 16:32:21;;;;;;;;;;;;;;;;;;5070391;28;1981;-72
2022/08/06 16:34:47;;;;;;;;;;;;;;;;;;5074216;28;1333;-72
2022/08/06 16:37:13;;;;;;;;;;;;;;;;;;5073853;28;1048;-72
2022/08/06 16:39:39;;;;;;;;;;;;;;;;;;5074377;28;1127;-73
2022/08/06 16:42:06;;;;;;;;;;;;;;;;;;5073850;28;794;-72
2022/08/06 16:44:32;;;;;;;;;;;;;;;;;;5074210;28;1321;-71
2022/08/06 16:47:00;;;;;;;;;;;;;;;;;;5074226;28;957;-72
2022/08/06 16:49:26;;;;;;;;;;;;;;;;;;5055926;28;1136;-72
2022/08/06 16:51:52;;;;;;;;;;;;;;;;;;5055801;28;1927;-73
2022/08/06 16:54:18;;;;;;;;;;;;;;;;;;5073650;28;1333;-72
2022/08/06 16:56:45;;;;;;;;;;;;;;;;;;5074044;28;782;-72
2022/08/06 16:59:11;;;;;;;;;;;;;;;;;;5073799;28;1104;-71
2022/08/06 17:01:39;;;;;;;;;;;;;;;;;;5073624;28;910;-72
2022/08/06 17:04:06;;;;;;;;;;;;;;;;;;5073817;28;1399;-72
2022/08/06 17:06:33;;;;;;;;;;;;;;;;;;5073854;28;1068;-72
2022/08/06 17:09:00;;;;;;;;;;;;;;;;;;5073829;28;699;-72
2022/08/06 17:11:26;;;;;;;;;;;;;;;;;;5055281;28;1237;-72
2022/08/06 17:13:53;;;;;;;;;;;;;;;;;;5073181;28;1918;-72
2022/08/06 17:16:19;;;;;;;;;;;;;;;;;;5073629;28;802;-72